Epsom, NH (03234)

12:52 AM EDT on October 20, 2014 (GMT -0400)
KNHCHICH2 | Change Station
CLOSE
Current Station
Personal Weather Station
Location: Chichester, NH
Elevation: 689 ft
Nearby Weather Stations

Elev 689 ft 43.21 °N, 71.41 °W | Updated 5 minutes ago

Overcast
Overcast
37.5 °F
Feels Like 38 °F
N
0.0
Wind Variable Wind from NW
Gusts 3.0 mph

Today
High -- | Low -- °F
--% Chance of Precip.
Yesterday
High -- | Low -- °F
Precip. -- in
7:05 AM 5:54 PM
Waning Crescent, 13% visible
Pressure 29.95 in
Visibility 10.0 miles
Clouds Overcast 5500 ft
Windchill 38 °F
Dew Point 26 °F
Humidity 64%
Rainfall 0.00 in
Snow Depth Not available.
UV 0 out of 12
Pollen .80 out of 12
Ozone Good
Flu Activity Local Activity
METAR KCON 200251Z AUTO 32007KT 10SM OVC055 05/M04 A2994 RMK AO2 SLP140 T00501044 51007

More Conditions Fewer Conditions

Pressure 29.95 in
Visibility 10.0 miles
Clouds Overcast 5500 ft
Windchill 38 °F
Dew Point 26 °F
Humidity 64%
Rainfall 0.00 in
Snow Depth Not available.
UV 0 out of 12
Pollen .80 out of 12
Ozone Good
Flu Activity Local Activity
METAR KCON 200251Z AUTO 32007KT 10SM OVC055 05/M04 A2994 RMK AO2 SLP140 T00501044 51007

More Conditions Fewer Conditions

10-Day Weather Forecast

Almanac

Astronomy

Oct. 20, 2014 Rise Set
Actual Time 7:05 AM EDT 5:54 PM EDT
Civil Twilight 6:36 AM EDT 6:23 PM EDT
Nautical Twilight 6:03 AM EDT 6:56 PM EDT
Astronomical Twilight 5:30 AM EDT 7:29 PM EDT
Moon 3:45 AM EDT 4:20 PM EDT
Length of Visible Light 11h 47m
Length of Day
10h 49m
Waning Crescent, 13% of the Moon is Illuminated
Today
Waning Crescent
Oct 23
New
Oct 30
First Quarter
Nov 6
Full
Nov 14
Last Quarter

Today's Extremes

State Highs State Lows

Community

WunderPhotos

Upload Photos

1,763,294 photos uploaded!

Nearby

Air Quality

  Air Quality AQ Index Pollutant
Yesterday Good
OZONE
Current Good
OZONE
Sunday Good
PM2.5
Sunday Good
OZONE
Monday Good
PM2.5
Monday Good
OZONE

Snow Depth

Station Depth Elevation
No new snow has been reported.

Earthquake Activity

City Distance Mag. Time & Date
No recent earthquake activity has been reported nearby.
Minimum magnitude displayed is 2.5.

Coastal Water Temperatures

Place Temperature
No Stations Reporting

Nearby Weather Stations